Time;durP1;ratioP1;P1;durP2;ratioP2;P2;SDS_P1;SDS_P2;PMS_P1;PMS_P2;Temp;Humidity;BMP_temperature;BMP_pressure;BME280_temperature;BME280_humidity;BME280_pressure;Samples;Min_cycle;Max_cycle;Signal;HPM_P1;HPM_P2
2021/07/06 00:00:09;;;;;;;4.15;1.98;;;;;;;18.45;nan;100190.22;4982922;28;20038;-75
2021/07/06 00:02:37;;;;;;;4.45;1.55;;;;;;;18.26;nan;100183.00;4980394;28;20038;-75
2021/07/06 00:05:03;;;;;;;3.63;1.38;;;;;;;18.16;nan;100189.69;4983020;28;20034;-75
2021/07/06 00:07:29;;;;;;;5.95;1.58;;;;;;;18.06;nan;100199.03;4981068;28;20038;-75
2021/07/06 00:09:55;;;;;;;2.50;1.10;;;;;;;17.94;nan;100201.25;4982206;28;20406;-76
2021/07/06 00:12:21;;;;;;;2.65;1.17;;;;;;;17.97;nan;100189.56;4981906;28;20043;-75
2021/07/06 00:14:46;;;;;;;3.55;1.67;;;;;;;18.01;nan;100190.34;4980974;28;20035;-75
2021/07/06 00:17:12;;;;;;;3.05;1.08;;;;;;;17.99;nan;100205.53;4984817;28;20073;-75
2021/07/06 00:19:37;;;;;;;3.72;1.20;;;;;;;17.95;nan;100205.69;4984200;28;20131;-75
2021/07/06 00:22:03;;;;;;;4.40;1.40;;;;;;;17.92;nan;100191.56;4991141;28;20045;-75
2021/07/06 00:24:28;;;;;;;4.18;1.30;;;;;;;17.87;nan;100188.25;4984107;28;20500;-75
2021/07/06 00:26:54;;;;;;;3.35;1.20;;;;;;;17.91;nan;100190.69;4965698;28;20114;-74
2021/07/06 00:29:19;;;;;;;2.70;1.40;;;;;;;17.94;nan;100190.56;4969776;28;20145;-75
2021/07/06 00:31:44;;;;;;;6.93;1.60;;;;;;;17.98;nan;100191.31;4986118;28;20467;-75
2021/07/06 00:34:10;;;;;;;3.08;1.70;;;;;;;17.94;nan;100187.91;4984382;28;20513;-77
2021/07/06 00:36:36;;;;;;;2.92;1.48;;;;;;;17.91;nan;100184.50;4986699;28;20088;-75
2021/07/06 00:39:01;;;;;;;3.70;1.63;;;;;;;17.88;nan;100189.97;4983758;28;20035;-75
2021/07/06 00:41:28;;;;;;;3.33;1.70;;;;;;;17.82;nan;100188.44;4987069;28;20048;-75
2021/07/06 00:43:53;;;;;;;2.75;1.60;;;;;;;17.80;nan;100181.41;4983929;28;20039;-74
2021/07/06 00:46:18;;;;;;;3.05;1.40;;;;;;;17.77;nan;100185.06;4985767;28;20093;-74
2021/07/06 00:48:44;;;;;;;5.82;1.27;;;;;;;17.74;nan;100187.84;4985095;28;20034;-75
2021/07/06 00:51:09;;;;;;;2.35;1.58;;;;;;;17.67;nan;100181.03;4984835;28;20116;-75
2021/07/06 00:53:34;;;;;;;4.90;1.52;;;;;;;17.69;nan;100179.16;4986129;28;20038;-74
2021/07/06 00:56:00;;;;;;;1.95;1.40;;;;;;;17.72;nan;100168.34;4982998;28;20078;-74
2021/07/06 00:58:27;;;;;;;3.00;1.40;;;;;;;17.70;nan;100176.41;4986810;28;20042;-74
2021/07/06 01:00:53;;;;;;;2.10;1.10;;;;;;;17.63;nan;100182.06;4983361;28;20034;-74
2021/07/06 01:03:18;;;;;;;4.70;1.30;;;;;;;17.63;nan;100184.72;4986209;28;20422;-74
2021/07/06 01:05:43;;;;;;;3.75;1.45;;;;;;;17.64;nan;100186.50;4984020;28;20034;-75
2021/07/06 01:08:09;;;;;;;3.88;1.55;;;;;;;17.65;nan;100177.53;4985149;28;20416;-74
2021/07/06 01:10:35;;;;;;;2.20;1.25;;;;;;;17.65;nan;100189.06;5011857;23;20085;-78
2021/07/06 01:13:02;;;;;;;3.47;1.45;;;;;;;17.65;nan;100181.06;5008224;28;20081;-80
2021/07/06 01:15:29;;;;;;;5.88;2.00;;;;;;;17.63;nan;100190.06;5007875;28;20042;-79
2021/07/06 01:18:10;;;;;;;6.15;1.80;;;;;;;17.62;nan;100178.53;5015634;28;20050;-80
2021/07/06 01:20:44;;;;;;;4.03;1.70;;;;;;;17.58;nan;100194.72;5007409;28;20097;-79
2021/07/06 01:23:10;;;;;;;4.75;2.00;;;;;;;17.45;nan;100192.56;4995577;28;20058;-79
2021/07/06 01:25:37;;;;;;;3.67;1.60;;;;;;;17.43;nan;100190.91;4999046;28;20034;-79
2021/07/06 01:28:04;;;;;;;2.40;1.42;;;;;;;17.38;nan;100183.06;4998204;28;20126;-79
2021/07/06 01:30:30;;;;;;;3.13;1.67;;;;;;;17.35;nan;100191.19;4996994;28;20061;-79
2021/07/06 01:32:55;;;;;;;5.53;1.83;;;;;;;17.30;nan;100187.84;4998735;28;20061;-79
2021/07/06 01:35:21;;;;;;;4.90;2.05;;;;;;;17.23;nan;100197.88;4996936;28;20034;-79
2021/07/06 01:37:49;;;;;;;3.95;1.80;;;;;;;17.17;nan;100184.78;4998701;28;20049;-79
2021/07/06 01:40:16;;;;;;;3.53;1.90;;;;;;;17.21;nan;100188.19;4997410;28;20043;-78
2021/07/06 01:42:42;;;;;;;4.43;2.30;;;;;;;17.25;nan;100197.81;4999396;28;20042;-79
2021/07/06 01:45:20;;;;;;;3.58;2.00;;;;;;;17.27;nan;100185.28;4995487;28;20077;-80
2021/07/06 01:47:49;;;;;;;3.33;1.65;;;;;;;17.21;nan;100193.50;4995830;28;20046;-80
2021/07/06 01:50:20;;;;;;;3.15;1.70;;;;;;;17.12;nan;100194.75;4989981;28;20039;-80
2021/07/06 01:52:48;;;;;;;3.38;1.40;;;;;;;17.07;nan;100189.59;4997059;28;20051;-79
2021/07/06 01:55:19;;;;;;;3.33;1.42;;;;;;;17.06;nan;100185.19;5000518;28;20045;-79
2021/07/06 01:57:45;;;;;;;3.08;1.60;;;;;;;16.98;nan;100181.97;4993217;28;20045;-79
2021/07/06 02:00:14;;;;;;;3.08;1.77;;;;;;;16.89;nan;100176.09;4997867;28;20061;-79
2021/07/06 02:02:40;;;;;;;5.15;1.73;;;;;;;16.85;nan;100175.34;4988735;28;20039;-79
2021/07/06 02:05:30;;;;;;;5.00;1.70;;;;;;;16.75;nan;100179.25;4997315;28;20049;-79
2021/07/06 02:07:56;;;;;;;2.10;1.45;;;;;;;16.75;nan;100188.13;4995463;28;20042;-79
2021/07/06 02:10:22;;;;;;;3.30;1.40;;;;;;;16.72;nan;100190.03;4997977;28;20045;-79
2021/07/06 02:12:48;;;;;;;4.80;1.77;;;;;;;16.72;nan;100187.38;5013081;28;20449;-79
2021/07/06 02:15:15;;;;;;;4.05;1.60;;;;;;;16.71;nan;100178.47;4996835;28;20046;-80
2021/07/06 02:17:42;;;;;;;2.70;1.95;;;;;;;16.72;nan;100180.25;5005667;28;20046;-79
2021/07/06 02:20:11;;;;;;;3.50;1.55;;;;;;;16.71;nan;100180.28;4996154;28;20119;-79
2021/07/06 02:22:37;;;;;;;3.40;1.40;;;;;;;16.69;nan;100168.81;4986243;28;20054;-80
2021/07/06 02:25:07;;;;;;;3.30;1.77;;;;;;;16.71;nan;100174.94;4997371;28;20054;-80
2021/07/06 02:27:33;;;;;;;2.70;1.40;;;;;;;16.73;nan;100173.97;4992021;28;20049;-80
2021/07/06 02:29:58;;;;;;;2.78;1.70;;;;;;;16.74;nan;100166.84;4997971;28;20050;-80
2021/07/06 02:32:24;;;;;;;3.33;1.70;;;;;;;16.73;nan;100165.13;4995404;28;20034;-80
2021/07/06 02:34:49;;;;;;;3.08;1.63;;;;;;;16.68;nan;100173.28;4995919;28;20030;-79
2021/07/06 02:37:15;;;;;;;2.05;1.45;;;;;;;16.61;nan;100167.31;4995408;28;20166;-80
2021/07/06 02:39:40;;;;;;;3.58;1.60;;;;;;;16.57;nan;100160.34;4994381;28;20053;-80
2021/07/06 02:42:05;;;;;;;2.92;1.58;;;;;;;16.50;nan;100158.81;4996045;28;20053;-79
2021/07/06 02:44:31;;;;;;;4.35;2.00;;;;;;;16.52;nan;100161.44;5010783;28;20041;-80
2021/07/06 02:46:56;;;;;;;2.80;1.60;;;;;;;16.49;nan;100162.44;4994743;28;20035;-79
2021/07/06 02:49:21;;;;;;;3.10;1.50;;;;;;;16.47;nan;100153.63;4994755;28;20022;-79
2021/07/06 02:51:47;;;;;;;4.30;1.45;;;;;;;16.44;nan;100153.72;4996502;28;20035;-80
2021/07/06 02:54:12;;;;;;;3.80;1.60;;;;;;;16.42;nan;100155.56;4994891;28;20058;-80
2021/07/06 02:56:37;;;;;;;2.83;1.63;;;;;;;16.43;nan;100158.19;4995861;28;20046;-80
2021/07/06 02:59:03;;;;;;;4.50;1.60;;;;;;;16.41;nan;100153.84;4993556;28;20094;-80
2021/07/06 03:01:29;;;;;;;2.28;1.27;;;;;;;16.38;nan;100149.50;4996507;28;20505;-80
2021/07/06 03:03:54;;;;;;;2.58;1.50;;;;;;;16.41;nan;100156.50;4994228;28;20063;-80
2021/07/06 03:06:19;;;;;;;2.83;1.67;;;;;;;16.39;nan;100153.03;4996996;28;20042;-80
2021/07/06 03:08:45;;;;;;;2.47;1.40;;;;;;;16.42;nan;100156.44;4994072;28;20042;-80
2021/07/06 03:11:10;;;;;;;3.25;1.35;;;;;;;16.43;nan;100155.53;4993374;28;20046;-79
2021/07/06 03:13:35;;;;;;;2.88;1.80;;;;;;;16.40;nan;100152.97;4997234;28;20042;-80
2021/07/06 03:16:01;;;;;;;2.50;1.60;;;;;;;16.37;nan;100157.53;4992333;28;20062;-79
2021/07/06 03:18:26;;;;;;;4.35;1.90;;;;;;;16.40;nan;100162.75;4989132;28;20046;-79
2021/07/06 03:20:52;;;;;;;3.40;2.05;;;;;;;16.41;nan;100160.03;4994274;28;20035;-80
2021/07/06 03:23:18;;;;;;;3.90;1.80;;;;;;;16.43;nan;100155.53;5009702;28;20093;-79
2021/07/06 03:25:44;;;;;;;3.95;2.17;;;;;;;16.46;nan;100162.53;4990063;28;20027;-80
2021/07/06 03:28:10;;;;;;;3.67;2.20;;;;;;;16.50;nan;100157.97;4993151;28;20046;-79
2021/07/06 03:30:37;;;;;;;4.18;2.40;;;;;;;16.50;nan;100149.97;4995030;28;20058;-79
2021/07/06 03:33:08;;;;;;;4.95;2.53;;;;;;;16.49;nan;100145.59;4994307;28;20038;-79
2021/07/06 03:35:34;;;;;;;5.20;2.45;;;;;;;16.50;nan;100148.16;4993524;28;20042;-79
2021/07/06 03:37:59;;;;;;;4.88;2.40;;;;;;;16.54;nan;100149.81;4995163;28;20049;-79
2021/07/06 03:40:25;;;;;;;9.63;2.78;;;;;;;16.59;nan;100145.19;4993981;28;20117;-79
2021/07/06 03:42:52;;;;;;;5.40;1.90;;;;;;;16.60;nan;100157.56;4996698;28;20034;-80
2021/07/06 03:45:18;;;;;;;3.17;2.10;;;;;;;16.65;nan;100157.41;4992781;28;20035;-80
2021/07/06 03:47:44;;;;;;;5.55;2.40;;;;;;;16.68;nan;100164.41;4996742;28;20042;-80
2021/07/06 03:50:12;;;;;;;4.22;2.08;;;;;;;16.72;nan;100163.38;4992867;28;20025;-80
2021/07/06 03:52:38;;;;;;;4.55;2.17;;;;;;;16.77;nan;100151.66;4994876;28;20041;-80
2021/07/06 03:55:05;;;;;;;5.70;2.00;;;;;;;16.85;nan;100154.03;5000548;28;20035;-80
2021/07/06 03:57:30;;;;;;;2.92;1.90;;;;;;;16.91;nan;100167.13;4994729;28;20031;-80
2021/07/06 04:00:08;;;;;;;5.28;2.53;;;;;;;16.98;nan;100165.09;4993234;28;20512;-79
2021/07/06 04:02:38;;;;;;;6.03;2.57;;;;;;;17.05;nan;100164.78;5007748;28;20458;-80
2021/07/06 04:05:05;;;;;;;5.55;2.70;;;;;;;17.12;nan;100162.75;4983019;28;20043;-79
2021/07/06 04:07:30;;;;;;;3.40;1.85;;;;;;;17.24;nan;100166.75;4996496;28;20034;-80
2021/07/06 04:09:57;;;;;;;3.92;1.77;;;;;;;17.38;nan;100158.19;4993121;28;20061;-80
2021/07/06 04:12:22;;;;;;;5.93;2.58;;;;;;;17.47;nan;100166.66;4995887;28;20511;-79
2021/07/06 04:14:48;;;;;;;5.75;2.95;;;;;;;17.58;nan;100163.59;4993746;28;20034;-80
2021/07/06 04:17:13;;;;;;;8.70;4.10;;;;;;;17.68;nan;100159.63;4996127;28;20030;-79
2021/07/06 04:19:38;;;;;;;7.25;4.45;;;;;;;17.78;nan;100156.56;5001352;28;20560;-79
2021/07/06 04:22:04;;;;;;;4.80;3.63;;;;;;;17.85;nan;100153.59;4994298;28;20031;-80
2021/07/06 04:24:30;;;;;;;5.20;3.58;;;;;;;17.92;nan;100162.19;4993618;28;20031;-79
2021/07/06 04:26:59;;;;;;;6.65;3.00;;;;;;;18.01;nan;100159.16;5010205;28;20049;-80
2021/07/06 04:29:25;;;;;;;5.35;2.72;;;;;;;18.08;nan;100170.47;4994621;28;20029;-79
2021/07/06 04:31:52;;;;;;;5.25;1.83;;;;;;;18.10;nan;100153.44;4992712;28;20062;-80
2021/07/06 04:34:17;;;;;;;4.50;1.80;;;;;;;18.17;nan;100159.34;4995018;28;20048;-80
2021/07/06 04:36:42;;;;;;;6.90;1.83;;;;;;;18.26;nan;100158.97;4991697;28;20098;-79
2021/07/06 04:39:07;;;;;;;4.68;1.88;;;;;;;18.36;nan;100159.41;4994229;28;20122;-80
2021/07/06 04:41:33;;;;;;;4.93;1.83;;;;;;;18.48;nan;100163.38;4991830;28;20078;-80
2021/07/06 04:43:58;;;;;;;5.63;1.88;;;;;;;18.60;nan;100157.44;4995088;28;20035;-80
2021/07/06 04:46:24;;;;;;;9.32;2.20;;;;;;;18.71;nan;100165.88;4990673;28;20038;-79
2021/07/06 04:48:49;;;;;;;5.63;2.17;;;;;;;18.80;nan;100162.78;4994330;28;20615;-79
2021/07/06 04:51:15;;;;;;;4.63;2.08;;;;;;;18.91;nan;100164.09;4991703;28;20051;-80
2021/07/06 04:53:41;;;;;;;3.90;1.70;;;;;;;18.99;nan;100157.47;5010765;28;20038;-80
2021/07/06 04:56:07;;;;;;;4.25;2.10;;;;;;;19.05;nan;100169.69;4992783;28;20043;-80
2021/07/06 04:58:32;;;;;;;4.35;2.20;;;;;;;19.12;nan;100165.75;4995432;28;20048;-80
2021/07/06 05:00:58;;;;;;;3.90;1.83;;;;;;;19.22;nan;100172.41;4993168;28;20030;-79
2021/07/06 05:03:24;;;;;;;5.68;1.95;;;;;;;19.29;nan;100166.78;4994944;28;20045;-81
2021/07/06 05:05:50;;;;;;;5.00;2.95;;;;;;;19.39;nan;100165.41;4987136;28;20031;-81
2021/07/06 05:08:15;;;;;;;7.13;2.65;;;;;;;19.49;nan;100162.22;4996599;28;20445;-81
2021/07/06 05:10:41;;;;;;;5.05;3.30;;;;;;;19.58;nan;100166.22;4992748;28;20034;-81
2021/07/06 05:13:06;;;;;;;7.75;3.60;;;;;;;19.70;nan;100154.06;5004438;28;20471;-81
2021/07/06 05:15:32;;;;;;;4.55;3.00;;;;;;;19.80;nan;100152.66;4995562;28;20044;-79
2021/07/06 05:17:57;;;;;;;4.38;2.70;;;;;;;19.91;nan;100155.69;4996933;28;20078;-80
2021/07/06 05:20:22;;;;;;;3.75;2.72;;;;;;;20.04;nan;100144.31;4995844;28;20053;-81
2021/07/06 05:22:48;;;;;;;7.85;2.97;;;;;;;20.16;nan;100145.53;5012537;28;20034;-79
2021/07/06 05:25:14;;;;;;;5.65;2.25;;;;;;;20.27;nan;100159.22;5009852;28;20039;-80
2021/07/06 05:27:39;;;;;;;5.38;2.60;;;;;;;20.33;nan;100153.53;5013094;28;20086;-81
2021/07/06 05:30:07;;;;;;;7.22;3.17;;;;;;;20.36;nan;100161.44;5009887;28;20286;-81
2021/07/06 05:32:36;;;;;;;13.15;3.60;;;;;;;20.44;nan;100172.59;5011037;28;20062;-79
2021/07/06 05:35:01;;;;;;;6.20;3.00;;;;;;;20.53;nan;100169.41;4992350;28;20413;-79
2021/07/06 05:37:27;;;;;;;3.47;1.95;;;;;;;20.66;nan;100168.81;5006539;28;20039;-78
2021/07/06 05:39:52;;;;;;;3.28;1.70;;;;;;;20.82;nan;100169.72;4992051;28;20027;-78
2021/07/06 05:42:17;;;;;;;5.30;2.50;;;;;;;20.89;nan;100159.53;5000903;28;20058;-78
2021/07/06 05:44:44;;;;;;;4.05;2.63;;;;;;;20.91;nan;100161.16;4998919;28;20409;-79
2021/07/06 05:47:10;;;;;;;4.85;2.72;;;;;;;20.99;nan;100166.97;4999433;28;20054;-79
2021/07/06 05:49:35;;;;;;;5.18;1.80;;;;;;;21.09;nan;100163.78;4996758;28;20064;-79
2021/07/06 05:52:01;;;;;;;3.38;1.45;;;;;;;21.16;nan;100163.34;4987942;28;20042;-78
2021/07/06 05:54:26;;;;;;;2.53;1.73;;;;;;;21.24;nan;100161.09;4994938;28;20066;-78
2021/07/06 05:56:52;;;;;;;2.85;1.38;;;;;;;21.36;nan;100162.22;4993450;28;20053;-78
2021/07/06 05:59:17;;;;;;;3.50;1.55;;;;;;;21.52;nan;100169.44;4994607;28;20045;-79
2021/07/06 06:01:42;;;;;;;2.65;1.25;;;;;;;21.54;nan;100162.19;4997315;28;20030;-77
2021/07/06 06:04:08;;;;;;;3.63;1.45;;;;;;;21.62;nan;100165.28;4994782;28;20501;-76
2021/07/06 06:06:33;;;;;;;3.90;1.30;;;;;;;21.69;nan;100158.59;4997345;28;20496;-79
2021/07/06 06:08:58;;;;;;;2.78;1.10;;;;;;;21.76;nan;100153.72;4993576;28;20042;-79
2021/07/06 06:11:24;;;;;;;4.18;1.00;;;;;;;21.83;nan;100160.47;5004364;28;20046;-79
2021/07/06 06:13:49;;;;;;;4.60;1.17;;;;;;;21.86;nan;100157.59;5009069;28;20045;-79
2021/07/06 06:16:14;;;;;;;4.28;1.40;;;;;;;21.96;nan;100152.56;4988504;28;20035;-79
2021/07/06 06:18:40;;;;;;;6.00;3.10;;;;;;;21.95;nan;100142.75;5000885;28;20046;-78
2021/07/06 06:21:05;;;;;;;1.98;1.00;;;;;;;22.01;nan;100137.91;5000272;28;20039;-78
2021/07/06 06:23:31;;;;;;;6.72;1.50;;;;;;;22.15;nan;100138.88;5014548;28;20102;-79
2021/07/06 06:25:56;;;;;;;2.42;1.10;;;;;;;22.19;nan;100137.75;4995591;28;20030;-79
2021/07/06 06:28:22;;;;;;;2.95;1.10;;;;;;;22.28;nan;100143.44;4997889;28;20042;-79
2021/07/06 06:30:47;;;;;;;3.53;1.00;;;;;;;22.41;nan;100137.34;4993795;28;20035;-78
2021/07/06 06:33:14;;;;;;;3.85;1.35;;;;;;;22.53;nan;100144.63;4997270;28;20089;-79
2021/07/06 06:35:40;;;;;;;3.22;1.58;;;;;;;22.63;nan;100135.03;5008893;28;20042;-79
2021/07/06 06:38:06;;;;;;;5.10;1.52;;;;;;;22.69;nan;100131.09;4994604;28;20034;-79
2021/07/06 06:40:31;;;;;;;3.33;1.58;;;;;;;22.67;nan;100136.56;4993677;28;20489;-80
2021/07/06 06:42:56;;;;;;;5.15;1.23;;;;;;;22.72;nan;100125.53;4994104;28;20082;-79
2021/07/06 06:45:22;;;;;;;3.85;1.65;;;;;;;22.87;nan;100131.75;4969550;28;20035;-79
2021/07/06 06:47:47;;;;;;;4.80;2.10;;;;;;;22.93;nan;100132.22;4996057;28;20038;-80
2021/07/06 06:50:14;;;;;;;4.40;1.65;;;;;;;23.00;nan;100123.78;4995220;28;20038;-79
2021/07/06 06:52:39;;;;;;;5.63;1.33;;;;;;;23.11;nan;100132.91;4996763;28;20042;-79
2021/07/06 06:55:06;;;;;;;2.85;1.40;;;;;;;23.26;nan;100124.78;4996894;28;20058;-79
2021/07/06 06:57:31;;;;;;;11.65;9.85;;;;;;;23.35;nan;100121.50;5010373;28;20030;-79
2021/07/06 06:59:56;;;;;;;5.10;3.25;;;;;;;23.40;nan;100106.78;4997136;28;20061;-79
2021/07/06 07:02:28;;;;;;;5.43;2.15;;;;;;;23.51;nan;100103.38;4993400;28;20109;-79
2021/07/06 07:04:53;;;;;;;3.92;1.50;;;;;;;23.51;nan;100097.97;4981912;28;20031;-79
2021/07/06 07:07:20;;;;;;;3.17;1.40;;;;;;;23.58;nan;100103.84;4996091;28;20061;-79
2021/07/06 07:09:46;;;;;;;1.83;0.95;;;;;;;23.70;nan;100104.81;5002477;28;20093;-79
2021/07/06 07:12:12;;;;;;;4.38;2.83;;;;;;;23.82;nan;100104.03;4994430;28;20039;-79
2021/07/06 07:14:41;;;;;;;4.50;2.75;;;;;;;23.93;nan;100104.16;4994604;28;20033;-79
2021/07/06 07:17:07;;;;;;;3.75;1.98;;;;;;;23.97;nan;100100.28;4989671;28;20065;-79
2021/07/06 07:19:33;;;;;;;5.05;1.02;;;;;;;23.96;nan;100103.06;4994448;28;20124;-78
2021/07/06 07:21:59;;;;;;;3.25;1.38;;;;;;;24.04;nan;100101.56;4995859;28;20101;-78
2021/07/06 07:24:24;;;;;;;4.28;1.50;;;;;;;24.27;nan;100104.50;5010289;28;20030;-79
2021/07/06 07:26:50;;;;;;;6.20;3.50;;;;;;;24.44;nan;100101.53;4993649;28;20054;-79
2021/07/06 07:29:16;;;;;;;2.55;0.98;;;;;;;24.44;nan;100098.84;5011579;28;20046;-79
2021/07/06 07:31:42;;;;;;;2.92;0.93;;;;;;;24.39;nan;100100.97;4992849;28;20031;-79
2021/07/06 07:34:07;;;;;;;2.55;1.25;;;;;;;24.47;nan;100108.50;5011091;28;20405;-79
2021/07/06 07:36:33;;;;;;;5.90;1.23;;;;;;;24.47;nan;100100.44;5006645;28;20035;-80
2021/07/06 07:38:58;;;;;;;2.25;0.80;;;;;;;24.57;nan;100114.13;4996387;28;20065;-79
2021/07/06 07:41:24;;;;;;;5.30;1.00;;;;;;;24.53;nan;100102.72;4991810;28;20049;-79
2021/07/06 07:43:53;;;;;;;3.08;1.55;;;;;;;24.64;nan;100101.94;4989173;28;20035;-77
2021/07/06 07:46:18;;;;;;;1.65;0.68;;;;;;;24.66;nan;100102.69;4994288;28;20038;-79
2021/07/06 07:48:45;;;;;;;2.72;1.10;;;;;;;24.70;nan;100099.66;5001477;28;20039;-79
2021/07/06 07:51:10;;;;;;;1.73;0.90;;;;;;;24.77;nan;100089.28;4994269;28;20042;-79
2021/07/06 07:53:35;;;;;;;2.63;1.23;;;;;;;24.84;nan;100093.28;4992568;28;20098;-78
2021/07/06 07:56:01;;;;;;;2.65;0.80;;;;;;;24.90;nan;100095.53;4995218;28;20094;-79
2021/07/06 07:58:26;;;;;;;2.20;0.90;;;;;;;25.04;nan;100090.94;4993257;28;20074;-78
2021/07/06 08:00:51;;;;;;;4.43;0.93;;;;;;;25.14;nan;100087.44;4994277;28;20443;-78
2021/07/06 08:03:16;;;;;;;2.75;1.08;;;;;;;25.18;nan;100087.25;4994315;28;20047;-79
2021/07/06 08:05:42;;;;;;;3.25;1.27;;;;;;;25.33;nan;100092.38;4993246;28;20042;-78
2021/07/06 08:08:07;;;;;;;2.45;0.70;;;;;;;25.22;nan;100094.16;4991994;23;1012488;-76
2021/07/06 08:10:32;;;;;;;7.35;1.90;;;;;;;25.30;nan;100100.72;5001744;28;20052;-76
2021/07/06 08:12:58;;;;;;;2.60;1.27;;;;;;;25.45;nan;100089.75;5001487;28;20038;-77
2021/07/06 08:15:23;;;;;;;3.65;1.08;;;;;;;25.44;nan;100085.31;4983109;28;20038;-78
2021/07/06 08:17:48;;;;;;;3.58;1.05;;;;;;;25.50;nan;100087.56;5002109;28;20133;-78
2021/07/06 08:20:14;;;;;;;2.00;0.88;;;;;;;25.57;nan;100084.28;5000081;28;20081;-78
2021/07/06 08:22:39;;;;;;;2.45;1.23;;;;;;;25.80;nan;100084.34;5002951;28;20085;-77
2021/07/06 08:25:05;;;;;;;4.13;1.90;;;;;;;26.06;nan;100082.38;4999350;28;20060;-76
2021/07/06 08:27:31;;;;;;;3.33;0.90;;;;;;;26.24;nan;100080.94;5002013;28;20045;-77
2021/07/06 08:29:56;;;;;;;3.42;1.70;;;;;;;26.28;nan;100080.69;5000597;28;20056;-78
2021/07/06 08:32:21;;;;;;;5.45;1.40;;;;;;;26.29;nan;100068.91;5005494;28;20050;-77
2021/07/06 08:34:46;;;;;;;2.83;1.40;;;;;;;26.32;nan;100057.81;5002892;28;20045;-77
2021/07/06 08:37:12;;;;;;;3.72;2.20;;;;;;;26.49;nan;100062.75;5000401;28;20046;-76
2021/07/06 08:39:37;;;;;;;4.40;1.20;;;;;;;26.63;nan;100057.13;5004426;28;20092;-77
2021/07/06 08:42:05;;;;;;;2.60;0.98;;;;;;;26.71;nan;100053.78;5005582;28;20041;-77
2021/07/06 08:44:31;;;;;;;2.00;1.10;;;;;;;26.76;nan;100039.88;5002971;28;20161;-77
2021/07/06 08:47:00;;;;;;;3.25;1.60;;;;;;;26.71;nan;100036.69;5006275;28;20124;-77
2021/07/06 08:49:26;;;;;;;2.28;0.98;;;;;;;26.83;nan;100041.97;5003683;28;20078;-77
2021/07/06 08:51:51;;;;;;;2.00;1.00;;;;;;;27.02;nan;100045.88;4987909;28;20041;-77
2021/07/06 08:54:18;;;;;;;2.55;1.25;;;;;;;27.20;nan;100038.97;5004177;28;20034;-77
2021/07/06 08:56:43;;;;;;;1.55;0.80;;;;;;;27.26;nan;100048.41;5004187;28;20061;-78
2021/07/06 08:59:09;;;;;;;3.40;1.35;;;;;;;27.37;nan;100047.50;5005182;28;20476;-77
2021/07/06 09:01:34;;;;;;;2.90;0.90;;;;;;;27.43;nan;100053.28;5003542;28;20076;-78
2021/07/06 09:04:03;;;;;;;5.68;3.47;;;;;;;27.58;nan;100051.13;5005949;28;20045;-78
2021/07/06 09:06:31;;;;;;;4.75;3.58;;;;;;;27.71;nan;100053.66;5002510;28;20030;-77
2021/07/06 09:09:18;;;;;;;3.10;1.20;;;;;;;27.76;nan;100054.09;5005384;28;20041;-77
2021/07/06 09:11:48;;;;;;;1.83;0.40;;;;;;;27.74;nan;100045.25;5003037;28;20034;-77
2021/07/06 09:14:14;;;;;;;1.63;0.70;;;;;;;27.65;nan;100049.59;4986752;28;20038;-76
2021/07/06 09:16:40;;;;;;;1.13;0.60;;;;;;;27.53;nan;100050.63;5004091;28;20034;-77
2021/07/06 09:19:23;;;;;;;0.85;0.40;;;;;;;27.78;nan;100052.13;5007366;28;20125;-78
2021/07/06 09:22:08;;;;;;;2.58;0.70;;;;;;;27.95;nan;100039.84;4986201;28;20038;-77
2021/07/06 09:24:33;;;;;;;1.40;0.60;;;;;;;27.90;nan;100032.13;5002589;28;20038;-78
2021/07/06 09:27:20;;;;;;;0.82;0.60;;;;;;;27.80;nan;100033.88;5004973;28;20481;-77
2021/07/06 09:30:06;;;;;;;4.75;1.88;;;;;;;27.86;nan;100030.66;4988391;28;20042;-78
2021/07/06 09:32:32;;;;;;;2.42;1.17;;;;;;;28.07;nan;100036.09;5005620;28;20033;-78
2021/07/06 09:35:08;;;;;;;5.63;2.53;;;;;;;28.19;nan;100042.28;5002187;28;20026;-78
2021/07/06 09:38:05;;;;;;;1.77;0.70;;;;;;;28.22;nan;100042.03;5002045;28;20096;-77
2021/07/06 09:40:36;;;;;;;2.10;1.20;;;;;;;28.18;nan;100036.00;4972491;28;20053;-77
2021/07/06 09:43:19;;;;;;;2.63;0.60;;;;;;;28.20;nan;100033.16;5001639;28;20039;-78
2021/07/06 09:46:01;;;;;;;1.58;0.70;;;;;;;28.36;nan;100033.50;5004640;28;20040;-77
2021/07/06 09:48:27;;;;;;;2.97;1.58;;;;;;;28.50;nan;100028.75;5003173;28;20045;-78
2021/07/06 09:51:29;;;;;;;3.60;1.27;;;;;;;28.52;nan;100021.34;5003505;28;20042;-77
2021/07/06 09:53:55;;;;;;;2.53;1.25;;;;;;;28.63;nan;100016.63;4945284;29;20039;-77
2021/07/06 09:56:23;;;;;;;3.35;2.00;;;;;;;28.79;nan;100008.00;4985270;28;20137;-77
2021/07/06 09:58:59;;;;;;;4.85;1.92;;;;;;;28.79;nan;99990.81;5004485;28;20128;-78
2021/07/06 10:01:25;;;;;;;3.80;2.13;;;;;;;28.91;nan;99999.72;5004172;28;20053;-78
2021/07/06 10:03:52;;;;;;;2.30;1.15;;;;;;;29.17;nan;100000.06;5002332;28;20038;-77
2021/07/06 10:06:20;;;;;;;3.70;1.30;;;;;;;29.25;nan;100001.06;5004837;28;20068;-78
2021/07/06 10:08:45;;;;;;;2.53;1.45;;;;;;;29.10;nan;100009.78;5001783;28;20034;-77
2021/07/06 10:11:11;;;;;;;2.22;0.98;;;;;;;29.09;nan;100017.06;5004420;28;20604;-78
2021/07/06 10:13:37;;;;;;;3.35;0.90;;;;;;;29.14;nan;100024.81;5002427;28;20507;-78
2021/07/06 10:16:05;;;;;;;5.22;1.13;;;;;;;29.10;nan;100026.06;5003072;28;20034;-77
2021/07/06 10:18:32;;;;;;;3.60;1.83;;;;;;;29.14;nan;100013.94;5003688;28;20053;-78
2021/07/06 10:21:04;;;;;;;2.40;1.10;;;;;;;29.22;nan;100012.22;5001999;28;20052;-77
2021/07/06 10:23:30;;;;;;;;;;;;;;;29.37;nan;100017.22;5002072;28;20169;-77
2021/07/06 10:25:58;;;;;;;2.70;1.75;;;;;;;29.60;nan;100017.78;4986324;28;20330;-77
2021/07/06 10:28:27;;;;;;;4.88;3.50;;;;;;;29.85;nan;100019.09;5002606;28;20046;-77
2021/07/06 10:30:54;;;;;;;3.70;2.47;;;;;;;30.07;nan;100015.16;5001979;28;20054;-77
2021/07/06 10:33:31;;;;;;;4.25;1.30;;;;;;;30.21;nan;100009.25;5003994;28;20030;-78
2021/07/06 10:35:58;;;;;;;3.38;1.70;;;;;;;30.29;nan;100003.09;5001809;28;20543;-77
2021/07/06 10:38:26;;;;;;;2.70;1.10;;;;;;;30.47;nan;99995.84;5002772;28;20511;-77
2021/07/06 10:40:52;;;;;;;3.08;1.38;;;;;;;30.46;nan;99993.28;5003352;28;20041;-78
2021/07/06 10:43:32;;;;;;;3.45;1.23;;;;;;;30.25;nan;99980.75;5001787;28;20037;-78
2021/07/06 10:46:14;;;;;;;6.47;1.80;;;;;;;30.46;nan;99994.13;4984453;28;20030;-77
2021/07/06 10:48:42;;;;;;;3.85;2.30;;;;;;;30.43;nan;99982.69;5000946;28;20416;-77
2021/07/06 10:51:08;;;;;;;4.40;1.88;;;;;;;30.58;nan;99976.59;5003249;28;20049;-78
2021/07/06 10:53:34;;;;;;;1.73;1.08;;;;;;;30.58;nan;99971.13;5002126;28;20124;-77
2021/07/06 10:56:11;;;;;;;4.45;1.60;;;;;;;30.72;nan;99963.47;5002030;28;20089;-77
2021/07/06 10:58:58;;;;;;;4.15;1.52;;;;;;;30.78;nan;99954.66;5003999;28;20068;-78
2021/07/06 11:01:43;;;;;;;7.57;4.30;;;;;;;30.89;nan;99968.13;5003259;28;20045;-77
2021/07/06 11:04:10;;;;;;;4.05;1.90;;;;;;;31.09;nan;99965.22;5002666;28;20034;-78
2021/07/06 11:06:45;;;;;;;3.75;1.50;;;;;;;31.08;nan;99960.81;5000799;28;20042;-77
2021/07/06 11:09:36;;;;;;;5.20;2.03;;;;;;;31.12;nan;99964.91;5001161;28;20523;-78
2021/07/06 11:12:29;;;;;;;7.82;4.35;;;;;;;30.95;nan;99955.75;4973062;28;20046;-77
2021/07/06 11:14:59;;;;;;;4.65;2.00;;;;;;;30.79;nan;99961.84;5001235;28;20078;-78
2021/07/06 11:17:34;;;;;;;2.67;1.63;;;;;;;30.86;nan;99962.09;5001821;28;20500;-78
2021/07/06 11:20:03;;;;;;;6.28;2.10;;;;;;;30.97;nan;99964.63;5003763;28;20037;-78
2021/07/06 11:22:41;;;;;;;6.38;3.30;;;;;;;30.94;nan;99971.25;5000829;28;20038;-77
2021/07/06 11:25:24;;;;;;;6.38;3.45;;;;;;;31.09;nan;99966.09;5000697;28;20129;-77
2021/07/06 11:28:26;;;;;;;3.35;2.05;;;;;;;30.99;nan;99958.00;5001871;28;20058;-78
2021/07/06 11:30:54;;;;;;;5.10;3.65;;;;;;;31.20;nan;99962.25;5003242;28;20037;-77
2021/07/06 11:33:32;;;;;;;3.70;2.00;;;;;;;31.14;nan;99949.28;4982728;28;20038;-78
2021/07/06 11:36:07;;;;;;;4.25;2.22;;;;;;;31.30;nan;99954.00;5001187;28;20034;-78
2021/07/06 11:38:43;;;;;;;3.92;2.17;;;;;;;31.49;nan;99947.53;5003542;28;20141;-77
2021/07/06 11:41:11;;;;;;;4.43;2.20;;;;;;;31.74;nan;99952.16;5001612;28;20481;-78
2021/07/06 11:43:37;;;;;;;3.72;2.38;;;;;;;32.01;nan;99961.22;5001381;28;20077;-77
2021/07/06 11:46:09;;;;;;;6.93;2.38;;;;;;;32.30;nan;99948.09;5002685;28;20025;-77